sensor_id;sensor_type;location;lat;lon;timestamp;pressure;altitude;pressure_sealevel;temperature;humidity
57885;BME280;43703;51.060;-0.086;2023-01-25T00:01:24;102238.63;;;1.12;66.46
57885;BME280;43703;51.060;-0.086;2023-01-25T00:03:49;102233.75;;;0.95;67.56
57885;BME280;43703;51.060;-0.086;2023-01-25T00:06:15;102235.17;;;2.05;65.18
57885;BME280;43703;51.060;-0.086;2023-01-25T00:08:40;102234.64;;;2.29;65.39
57885;BME280;43703;51.060;-0.086;2023-01-25T00:11:06;102235.08;;;2.56;65.75
57885;BME280;43703;51.060;-0.086;2023-01-25T00:13:31;102232.74;;;1.23;67.57
57885;BME280;43703;51.060;-0.086;2023-01-25T00:16:00;102230.57;;;1.89;65.94
57885;BME280;43703;51.060;-0.086;2023-01-25T00:18:22;102228.83;;;2.70;65.25
57885;BME280;43703;51.060;-0.086;2023-01-25T00:20:53;102224.75;;;1.98;64.68
57885;BME280;43703;51.060;-0.086;2023-01-25T00:23:13;102228.97;;;1.54;66.41
57885;BME280;43703;51.060;-0.086;2023-01-25T00:25:39;102228.74;;;1.31;66.76
57885;BME280;43703;51.060;-0.086;2023-01-25T00:28:04;102224.97;;;2.26;65.65
57885;BME280;43703;51.060;-0.086;2023-01-25T00:30:30;102223.58;;;3.13;64.29
57885;BME280;43703;51.060;-0.086;2023-01-25T00:33:00;102220.26;;;1.73;64.99
57885;BME280;43703;51.060;-0.086;2023-01-25T00:35:21;102219.29;;;2.52;64.61
57885;BME280;43703;51.060;-0.086;2023-01-25T00:37:47;102220.35;;;2.93;64.84
57885;BME280;43703;51.060;-0.086;2023-01-25T00:40:12;102220.18;;;2.43;64.89
57885;BME280;43703;51.060;-0.086;2023-01-25T00:42:38;102215.48;;;2.28;64.90
57885;BME280;43703;51.060;-0.086;2023-01-25T00:45:04;102210.59;;;3.19;64.92
57885;BME280;43703;51.060;-0.086;2023-01-25T00:47:29;102211.37;;;1.65;64.29
57885;BME280;43703;51.060;-0.086;2023-01-25T00:49:54;102211.79;;;2.27;64.46
57885;BME280;43703;51.060;-0.086;2023-01-25T00:52:20;102209.58;;;2.33;64.12
57885;BME280;43703;51.060;-0.086;2023-01-25T00:54:45;102206.99;;;3.21;64.14
57885;BME280;43703;51.060;-0.086;2023-01-25T00:57:11;102206.04;;;2.40;64.03
57885;BME280;43703;51.060;-0.086;2023-01-25T00:59:36;102204.94;;;2.43;63.85
57885;BME280;43703;51.060;-0.086;2023-01-25T01:02:02;102204.16;;;3.28;63.76
57885;BME280;43703;51.060;-0.086;2023-01-25T01:04:27;102203.35;;;3.43;63.55
57885;BME280;43703;51.060;-0.086;2023-01-25T01:06:53;102204.04;;;2.58;63.13
57885;BME280;43703;51.060;-0.086;2023-01-25T01:09:19;102197.67;;;3.11;64.16
57885;BME280;43703;51.060;-0.086;2023-01-25T01:11:49;102193.19;;;1.91;64.39
57885;BME280;43703;51.060;-0.086;2023-01-25T01:14:10;102194.40;;;2.46;64.68
57885;BME280;43703;51.060;-0.086;2023-01-25T01:16:36;102194.48;;;1.37;65.08
57885;BME280;43703;51.060;-0.086;2023-01-25T01:19:01;102188.82;;;2.88;64.24
57885;BME280;43703;51.060;-0.086;2023-01-25T01:21:27;102189.52;;;2.36;63.43
57885;BME280;43703;51.060;-0.086;2023-01-25T01:23:53;102188.82;;;2.89;63.98
57885;BME280;43703;51.060;-0.086;2023-01-25T01:26:19;102188.04;;;2.45;62.28
57885;BME280;43703;51.060;-0.086;2023-01-25T01:28:44;102187.61;;;1.30;64.64
57885;BME280;43703;51.060;-0.086;2023-01-25T01:31:12;102187.82;;;1.96;64.48
57885;BME280;43703;51.060;-0.086;2023-01-25T01:33:35;102190.48;;;2.06;64.17
57885;BME280;43703;51.060;-0.086;2023-01-25T01:36:05;102192.61;;;2.63;64.55
57885;BME280;43703;51.060;-0.086;2023-01-25T01:38:26;102189.62;;;2.65;63.52
57885;BME280;43703;51.060;-0.086;2023-01-25T01:40:51;102190.67;;;3.49;64.13
57885;BME280;43703;51.060;-0.086;2023-01-25T01:43:23;102188.98;;;2.92;63.25
57885;BME280;43703;51.060;-0.086;2023-01-25T01:45:51;102185.00;;;2.50;63.60
57885;BME280;43703;51.060;-0.086;2023-01-25T01:48:10;102185.26;;;3.25;63.84
57885;BME280;43703;51.060;-0.086;2023-01-25T01:50:33;102184.36;;;3.66;61.27
57885;BME280;43703;51.060;-0.086;2023-01-25T01:52:59;102183.52;;;2.12;61.95
57885;BME280;43703;51.060;-0.086;2023-01-25T01:55:24;102183.80;;;1.99;63.33
57885;BME280;43703;51.060;-0.086;2023-01-25T01:57:52;102182.65;;;1.92;63.52
57885;BME280;43703;51.060;-0.086;2023-01-25T02:00:17;102178.34;;;2.79;64.06
57885;BME280;43703;51.060;-0.086;2023-01-25T02:02:40;102174.92;;;2.75;64.49
57885;BME280;43703;51.060;-0.086;2023-01-25T02:05:10;102175.36;;;2.75;63.99
57885;BME280;43703;51.060;-0.086;2023-01-25T02:07:33;102173.04;;;2.75;63.79
57885;BME280;43703;51.060;-0.086;2023-01-25T02:10:03;102175.72;;;2.50;63.76
57885;BME280;43703;51.060;-0.086;2023-01-25T02:12:22;102177.39;;;2.89;64.31
57885;BME280;43703;51.060;-0.086;2023-01-25T02:14:49;102174.19;;;2.32;62.96
57885;BME280;43703;51.060;-0.086;2023-01-25T02:17:12;102170.62;;;1.97;62.78
57885;BME280;43703;51.060;-0.086;2023-01-25T02:19:44;102171.00;;;2.21;62.73
57885;BME280;43703;51.060;-0.086;2023-01-25T02:22:07;102170.88;;;2.28;62.56
57885;BME280;43703;51.060;-0.086;2023-01-25T02:24:32;102171.72;;;2.38;63.38
57885;BME280;43703;51.060;-0.086;2023-01-25T02:26:55;102175.46;;;2.34;62.92
57885;BME280;43703;51.060;-0.086;2023-01-25T02:29:22;102176.60;;;3.99;60.99
57885;BME280;43703;51.060;-0.086;2023-01-25T02:31:46;102171.99;;;2.24;61.06
57885;BME280;43703;51.060;-0.086;2023-01-25T02:34:11;102167.57;;;1.55;63.66
57885;BME280;43703;51.060;-0.086;2023-01-25T02:36:36;102172.04;;;1.62;65.84
57885;BME280;43703;51.060;-0.086;2023-01-25T02:39:06;102173.97;;;1.91;63.64
57885;BME280;43703;51.060;-0.086;2023-01-25T02:41:32;102173.42;;;2.81;64.24
57885;BME280;43703;51.060;-0.086;2023-01-25T02:43:53;102171.76;;;2.62;64.54
57885;BME280;43703;51.060;-0.086;2023-01-25T02:46:22;102173.60;;;2.50;64.73
57885;BME280;43703;51.060;-0.086;2023-01-25T02:48:44;102172.55;;;3.03;63.85
57885;BME280;43703;51.060;-0.086;2023-01-25T02:51:10;102172.21;;;3.09;63.04
57885;BME280;43703;51.060;-0.086;2023-01-25T02:53:36;102165.81;;;2.49;63.19
57885;BME280;43703;51.060;-0.086;2023-01-25T02:56:01;102159.99;;;1.20;64.65
57885;BME280;43703;51.060;-0.086;2023-01-25T02:58:26;102159.96;;;2.14;65.22
57885;BME280;43703;51.060;-0.086;2023-01-25T03:00:52;102162.88;;;3.25;64.13
57885;BME280;43703;51.060;-0.086;2023-01-25T03:03:17;102162.78;;;2.66;64.28
57885;BME280;43703;51.060;-0.086;2023-01-25T03:05:43;102164.42;;;2.30;63.61
57885;BME280;43703;51.060;-0.086;2023-01-25T03:08:08;102164.60;;;1.66;64.87
57885;BME280;43703;51.060;-0.086;2023-01-25T03:10:34;102161.07;;;2.69;64.03
57885;BME280;43703;51.060;-0.086;2023-01-25T03:12:59;102162.48;;;2.45;62.76
57885;BME280;43703;51.060;-0.086;2023-01-25T03:15:24;102158.62;;;2.84;63.43
57885;BME280;43703;51.060;-0.086;2023-01-25T03:17:49;102158.50;;;2.48;63.61
57885;BME280;43703;51.060;-0.086;2023-01-25T03:20:15;102157.13;;;3.28;63.26
57885;BME280;43703;51.060;-0.086;2023-01-25T03:22:40;102154.55;;;1.62;63.03
57885;BME280;43703;51.060;-0.086;2023-01-25T03:25:06;102156.93;;;0.80;64.64
57885;BME280;43703;51.060;-0.086;2023-01-25T03:27:31;102152.98;;;1.39;64.50
57885;BME280;43703;51.060;-0.086;2023-01-25T03:29:56;102145.95;;;0.83;66.48
57885;BME280;43703;51.060;-0.086;2023-01-25T03:32:21;102148.93;;;-0.25;70.43
57885;BME280;43703;51.060;-0.086;2023-01-25T03:34:47;102150.21;;;0.76;67.62
57885;BME280;43703;51.060;-0.086;2023-01-25T03:37:13;102148.16;;;1.91;66.04
57885;BME280;43703;51.060;-0.086;2023-01-25T03:39:38;102146.56;;;2.07;63.33
57885;BME280;43703;51.060;-0.086;2023-01-25T03:42:04;102147.34;;;1.62;64.54
57885;BME280;43703;51.060;-0.086;2023-01-25T03:44:29;102145.43;;;1.53;65.40
57885;BME280;43703;51.060;-0.086;2023-01-25T03:46:55;102144.45;;;1.19;64.58
57885;BME280;43703;51.060;-0.086;2023-01-25T03:49:20;102142.78;;;1.38;66.34
57885;BME280;43703;51.060;-0.086;2023-01-25T03:51:46;102136.67;;;1.18;66.15
57885;BME280;43703;51.060;-0.086;2023-01-25T03:54:12;102137.75;;;1.31;64.87
57885;BME280;43703;51.060;-0.086;2023-01-25T03:56:38;102138.44;;;2.05;65.53
57885;BME280;43703;51.060;-0.086;2023-01-25T03:59:03;102137.78;;;1.17;65.27
57885;BME280;43703;51.060;-0.086;2023-01-25T04:01:29;102132.88;;;1.22;65.77
57885;BME280;43703;51.060;-0.086;2023-01-25T04:03:54;102128.42;;;1.19;65.45
57885;BME280;43703;51.060;-0.086;2023-01-25T04:06:20;102126.75;;;0.88;65.16
57885;BME280;43703;51.060;-0.086;2023-01-25T04:08:45;102122.33;;;1.66;65.49
57885;BME280;43703;51.060;-0.086;2023-01-25T04:11:10;102123.76;;;1.07;65.80
57885;BME280;43703;51.060;-0.086;2023-01-25T04:13:36;102122.32;;;1.42;64.92
57885;BME280;43703;51.060;-0.086;2023-01-25T04:16:02;102121.49;;;2.17;64.20
57885;BME280;43703;51.060;-0.086;2023-01-25T04:18:27;102117.98;;;2.05;63.47
57885;BME280;43703;51.060;-0.086;2023-01-25T04:20:52;102126.67;;;2.52;63.96
57885;BME280;43703;51.060;-0.086;2023-01-25T04:23:17;102129.44;;;1.54;63.54
57885;BME280;43703;51.060;-0.086;2023-01-25T04:25:42;102133.43;;;1.93;63.53
57885;BME280;43703;51.060;-0.086;2023-01-25T04:28:08;102136.41;;;2.04;64.20
57885;BME280;43703;51.060;-0.086;2023-01-25T04:30:33;102135.25;;;1.89;63.63
57885;BME280;43703;51.060;-0.086;2023-01-25T04:33:02;102134.53;;;2.20;63.88
57885;BME280;43703;51.060;-0.086;2023-01-25T04:35:24;102134.80;;;1.19;64.32
57885;BME280;43703;51.060;-0.086;2023-01-25T04:37:53;102134.60;;;0.31;66.18
57885;BME280;43703;51.060;-0.086;2023-01-25T04:40:15;102139.24;;;1.39;63.47
57885;BME280;43703;51.060;-0.086;2023-01-25T04:42:40;102136.62;;;1.46;63.76
57885;BME280;43703;51.060;-0.086;2023-01-25T04:45:06;102132.88;;;1.51;64.22
57885;BME280;43703;51.060;-0.086;2023-01-25T04:47:30;102132.42;;;1.84;64.38
57885;BME280;43703;51.060;-0.086;2023-01-25T04:49:56;102129.54;;;1.40;63.32
57885;BME280;43703;51.060;-0.086;2023-01-25T04:52:21;102124.88;;;1.89;64.32
57885;BME280;43703;51.060;-0.086;2023-01-25T04:54:46;102125.62;;;0.44;65.38
57885;BME280;43703;51.060;-0.086;2023-01-25T04:57:12;102123.22;;;0.70;67.53
57885;BME280;43703;51.060;-0.086;2023-01-25T04:59:37;102124.92;;;0.15;67.38
57885;BME280;43703;51.060;-0.086;2023-01-25T05:02:03;102128.00;;;0.31;66.51
57885;BME280;43703;51.060;-0.086;2023-01-25T05:04:28;102129.60;;;1.34;66.10
57885;BME280;43703;51.060;-0.086;2023-01-25T05:06:54;102130.26;;;1.35;64.35
57885;BME280;43703;51.060;-0.086;2023-01-25T05:09:20;102127.43;;;0.91;65.53
57885;BME280;43703;51.060;-0.086;2023-01-25T05:11:45;102127.10;;;1.23;64.11
57885;BME280;43703;51.060;-0.086;2023-01-25T05:14:10;102129.30;;;0.95;63.76
57885;BME280;43703;51.060;-0.086;2023-01-25T05:16:35;102129.77;;;1.38;63.31
57885;BME280;43703;51.060;-0.086;2023-01-25T05:19:01;102129.91;;;1.23;63.08
57885;BME280;43703;51.060;-0.086;2023-01-25T05:21:26;102125.30;;;1.44;63.06
57885;BME280;43703;51.060;-0.086;2023-01-25T05:23:52;102122.66;;;2.28;63.56
57885;BME280;43703;51.060;-0.086;2023-01-25T05:26:17;102124.11;;;2.69;62.83
57885;BME280;43703;51.060;-0.086;2023-01-25T05:28:43;102122.39;;;1.98;63.26
57885;BME280;43703;51.060;-0.086;2023-01-25T05:31:08;102121.19;;;0.53;63.61
57885;BME280;43703;51.060;-0.086;2023-01-25T05:33:33;102124.02;;;1.59;64.31
57885;BME280;43703;51.060;-0.086;2023-01-25T05:35:59;102124.16;;;1.64;63.43
57885;BME280;43703;51.060;-0.086;2023-01-25T05:38:25;102127.31;;;2.77;62.46
57885;BME280;43703;51.060;-0.086;2023-01-25T05:40:50;102127.21;;;2.70;62.61
57885;BME280;43703;51.060;-0.086;2023-01-25T05:43:16;102121.30;;;1.18;63.08
57885;BME280;43703;51.060;-0.086;2023-01-25T05:45:41;102117.67;;;1.53;62.15
57885;BME280;43703;51.060;-0.086;2023-01-25T05:48:06;102109.19;;;0.08;62.88
57885;BME280;43703;51.060;-0.086;2023-01-25T05:50:32;102114.52;;;1.51;62.91
57885;BME280;43703;51.060;-0.086;2023-01-25T05:52:57;102110.48;;;1.78;62.88
57885;BME280;43703;51.060;-0.086;2023-01-25T05:55:22;102114.87;;;0.99;63.11
57885;BME280;43703;51.060;-0.086;2023-01-25T05:57:48;102112.86;;;1.65;62.94
57885;BME280;43703;51.060;-0.086;2023-01-25T06:00:14;102107.11;;;1.89;63.24
57885;BME280;43703;51.060;-0.086;2023-01-25T06:02:38;102106.01;;;1.93;63.19
57885;BME280;43703;51.060;-0.086;2023-01-25T06:05:05;102106.09;;;0.68;62.05
57885;BME280;43703;51.060;-0.086;2023-01-25T06:07:32;102108.27;;;1.65;62.95
57885;BME280;43703;51.060;-0.086;2023-01-25T06:09:54;102112.20;;;0.86;61.57
57885;BME280;43703;51.060;-0.086;2023-01-25T06:12:20;102114.92;;;-0.39;65.27
57885;BME280;43703;51.060;-0.086;2023-01-25T06:14:45;102114.53;;;0.21;64.17
57885;BME280;43703;51.060;-0.086;2023-01-25T06:17:10;102112.93;;;0.70;63.23
57885;BME280;43703;51.060;-0.086;2023-01-25T06:19:36;102113.27;;;0.88;63.20
57885;BME280;43703;51.060;-0.086;2023-01-25T06:22:01;102117.73;;;1.61;63.70
57885;BME280;43703;51.060;-0.086;2023-01-25T06:24:27;102118.51;;;0.58;62.56
57885;BME280;43703;51.060;-0.086;2023-01-25T06:26:53;102120.78;;;1.33;63.29
57885;BME280;43703;51.060;-0.086;2023-01-25T06:29:18;102119.23;;;1.72;63.26
57885;BME280;43703;51.060;-0.086;2023-01-25T06:31:44;102114.97;;;0.54;62.59
57885;BME280;43703;51.060;-0.086;2023-01-25T06:34:09;102115.90;;;-0.19;63.71
57885;BME280;43703;51.060;-0.086;2023-01-25T06:36:35;102114.64;;;0.92;63.70
57885;BME280;43703;51.060;-0.086;2023-01-25T06:39:00;102111.65;;;0.16;64.25
57885;BME280;43703;51.060;-0.086;2023-01-25T06:41:25;102117.29;;;1.04;64.11
57885;BME280;43703;51.060;-0.086;2023-01-25T06:43:52;102117.25;;;1.32;63.99
57885;BME280;43703;51.060;-0.086;2023-01-25T06:46:18;102118.21;;;1.15;62.99
57885;BME280;43703;51.060;-0.086;2023-01-25T06:48:42;102116.54;;;0.83;63.25
57885;BME280;43703;51.060;-0.086;2023-01-25T06:51:10;102113.04;;;0.36;62.67
57885;BME280;43703;51.060;-0.086;2023-01-25T06:53:34;102113.05;;;0.05;64.28
57885;BME280;43703;51.060;-0.086;2023-01-25T06:56:00;102105.69;;;0.94;64.26
57885;BME280;43703;51.060;-0.086;2023-01-25T06:58:24;102106.68;;;0.07;63.44
57885;BME280;43703;51.060;-0.086;2023-01-25T07:00:49;102103.89;;;0.67;62.58
57885;BME280;43703;51.060;-0.086;2023-01-25T07:03:14;102101.48;;;-1.20;66.82
57885;BME280;43703;51.060;-0.086;2023-01-25T07:05:40;102102.27;;;-1.09;67.93
57885;BME280;43703;51.060;-0.086;2023-01-25T07:08:05;102092.99;;;-0.40;67.10
57885;BME280;43703;51.060;-0.086;2023-01-25T07:10:31;102095.08;;;-1.15;68.98
57885;BME280;43703;51.060;-0.086;2023-01-25T07:12:56;102088.97;;;-1.11;68.65
57885;BME280;43703;51.060;-0.086;2023-01-25T07:15:21;102088.11;;;-0.91;67.03
57885;BME280;43703;51.060;-0.086;2023-01-25T07:17:47;102085.04;;;0.81;66.47
57885;BME280;43703;51.060;-0.086;2023-01-25T07:20:12;102083.48;;;0.54;64.96
57885;BME280;43703;51.060;-0.086;2023-01-25T07:22:38;102084.64;;;0.55;64.43
57885;BME280;43703;51.060;-0.086;2023-01-25T07:25:04;102089.26;;;0.04;64.95
57885;BME280;43703;51.060;-0.086;2023-01-25T07:27:31;102086.84;;;1.03;65.43
57885;BME280;43703;51.060;-0.086;2023-01-25T07:29:54;102088.47;;;1.13;64.64
57885;BME280;43703;51.060;-0.086;2023-01-25T07:32:20;102086.82;;;1.15;63.77
57885;BME280;43703;51.060;-0.086;2023-01-25T07:34:46;102086.56;;;1.38;63.36
57885;BME280;43703;51.060;-0.086;2023-01-25T07:37:11;102086.25;;;0.42;62.36
57885;BME280;43703;51.060;-0.086;2023-01-25T07:39:37;102084.57;;;0.72;62.48
57885;BME280;43703;51.060;-0.086;2023-01-25T07:42:02;102079.94;;;0.72;62.91
57885;BME280;43703;51.060;-0.086;2023-01-25T07:44:28;102079.55;;;1.26;63.24
57885;BME280;43703;51.060;-0.086;2023-01-25T07:46:53;102076.87;;;1.71;64.26
57885;BME280;43703;51.060;-0.086;2023-01-25T07:49:19;102071.30;;;0.31;63.23
57885;BME280;43703;51.060;-0.086;2023-01-25T07:51:44;102069.77;;;1.60;63.99
57885;BME280;43703;51.060;-0.086;2023-01-25T07:54:10;102072.11;;;1.23;63.41
57885;BME280;43703;51.060;-0.086;2023-01-25T07:56:36;102075.61;;;1.52;63.92
57885;BME280;43703;51.060;-0.086;2023-01-25T07:59:02;102074.67;;;1.50;64.13
57885;BME280;43703;51.060;-0.086;2023-01-25T08:01:28;102073.33;;;1.33;64.03
57885;BME280;43703;51.060;-0.086;2023-01-25T08:03:53;102067.31;;;1.19;63.03
57885;BME280;43703;51.060;-0.086;2023-01-25T08:06:22;102064.49;;;0.38;63.67
57885;BME280;43703;51.060;-0.086;2023-01-25T08:08:48;102061.98;;;0.68;65.14
57885;BME280;43703;51.060;-0.086;2023-01-25T08:11:11;102064.10;;;0.59;66.36
57885;BME280;43703;51.060;-0.086;2023-01-25T08:13:34;102066.09;;;-0.11;67.09
57885;BME280;43703;51.060;-0.086;2023-01-25T08:16:00;102072.17;;;-0.37;67.97
57885;BME280;43703;51.060;-0.086;2023-01-25T08:18:25;102062.02;;;0.39;66.05
57885;BME280;43703;51.060;-0.086;2023-01-25T08:20:50;102057.41;;;-0.52;68.41
57885;BME280;43703;51.060;-0.086;2023-01-25T08:23:16;102053.54;;;-0.24;68.75
57885;BME280;43703;51.060;-0.086;2023-01-25T08:25:42;102051.45;;;0.91;66.50
57885;BME280;43703;51.060;-0.086;2023-01-25T08:28:07;102052.41;;;0.51;65.45
57885;BME280;43703;51.060;-0.086;2023-01-25T08:30:33;102046.94;;;0.86;64.82
57885;BME280;43703;51.060;-0.086;2023-01-25T08:32:59;102040.74;;;1.02;64.27
57885;BME280;43703;51.060;-0.086;2023-01-25T08:35:24;102039.99;;;0.04;68.64
57885;BME280;43703;51.060;-0.086;2023-01-25T08:37:50;102040.24;;;-0.12;68.29
57885;BME280;43703;51.060;-0.086;2023-01-25T08:40:15;102039.97;;;-0.33;69.22
57885;BME280;43703;51.060;-0.086;2023-01-25T08:42:45;102034.68;;;0.13;68.10
57885;BME280;43703;51.060;-0.086;2023-01-25T08:45:07;102033.69;;;-0.13;68.82
57885;BME280;43703;51.060;-0.086;2023-01-25T08:47:31;102034.95;;;0.68;68.45
57885;BME280;43703;51.060;-0.086;2023-01-25T08:49:57;102031.88;;;0.60;68.49
57885;BME280;43703;51.060;-0.086;2023-01-25T08:52:22;102032.66;;;0.55;67.14
57885;BME280;43703;51.060;-0.086;2023-01-25T08:54:48;102029.56;;;0.75;66.29
57885;BME280;43703;51.060;-0.086;2023-01-25T08:57:13;102029.76;;;0.98;66.59
57885;BME280;43703;51.060;-0.086;2023-01-25T08:59:39;102027.76;;;1.62;66.51
57885;BME280;43703;51.060;-0.086;2023-01-25T09:02:05;102020.53;;;-0.05;68.87
57885;BME280;43703;51.060;-0.086;2023-01-25T09:04:30;102013.70;;;0.28;69.21
57885;BME280;43703;51.060;-0.086;2023-01-25T09:06:55;102013.89;;;0.62;67.44
57885;BME280;43703;51.060;-0.086;2023-01-25T09:09:21;102012.95;;;0.26;69.97
57885;BME280;43703;51.060;-0.086;2023-01-25T09:11:46;102010.05;;;0.47;70.09
57885;BME280;43703;51.060;-0.086;2023-01-25T09:14:11;102010.32;;;1.06;67.44
57885;BME280;43703;51.060;-0.086;2023-01-25T09:16:37;102009.38;;;0.99;66.96
57885;BME280;43703;51.060;-0.086;2023-01-25T09:19:03;102007.81;;;0.75;67.19
57885;BME280;43703;51.060;-0.086;2023-01-25T09:21:28;102008.25;;;0.37;68.60
57885;BME280;43703;51.060;-0.086;2023-01-25T09:23:54;102005.35;;;0.61;70.03
57885;BME280;43703;51.060;-0.086;2023-01-25T09:26:19;102000.17;;;0.80;69.21
57885;BME280;43703;51.060;-0.086;2023-01-25T09:28:52;101992.20;;;0.09;70.07
57885;BME280;43703;51.060;-0.086;2023-01-25T09:31:09;101976.53;;;0.89;68.29
57885;BME280;43703;51.060;-0.086;2023-01-25T09:33:36;101968.35;;;2.06;65.85
57885;BME280;43703;51.060;-0.086;2023-01-25T09:36:00;101965.22;;;1.97;64.12
57885;BME280;43703;51.060;-0.086;2023-01-25T09:38:26;101963.46;;;0.72;66.04
57885;BME280;43703;51.060;-0.086;2023-01-25T09:41:00;101970.49;;;1.42;66.11
57885;BME280;43703;51.060;-0.086;2023-01-25T09:43:20;101966.62;;;1.72;65.29
57885;BME280;43703;51.060;-0.086;2023-01-25T09:45:42;101961.96;;;-0.14;68.85
57885;BME280;43703;51.060;-0.086;2023-01-25T09:48:19;101963.73;;;0.34;68.26
57885;BME280;43703;51.060;-0.086;2023-01-25T09:50:36;101960.16;;;0.59;67.81
57885;BME280;43703;51.060;-0.086;2023-01-25T09:55:27;101955.81;;;0.59;69.91
57885;BME280;43703;51.060;-0.086;2023-01-25T09:57:50;101958.04;;;1.25;67.90
57885;BME280;43703;51.060;-0.086;2023-01-25T10:00:19;101960.34;;;1.70;66.05
57885;BME280;43703;51.060;-0.086;2023-01-25T10:02:47;101965.13;;;-0.61;71.14
57885;BME280;43703;51.060;-0.086;2023-01-25T10:05:10;101970.04;;;-0.19;71.32
57885;BME280;43703;51.060;-0.086;2023-01-25T10:07:41;101963.86;;;1.34;69.59
57885;BME280;43703;51.060;-0.086;2023-01-25T10:10:05;101961.02;;;1.32;67.05
57885;BME280;43703;51.060;-0.086;2023-01-25T10:12:23;101954.13;;;0.43;68.49
57885;BME280;43703;51.060;-0.086;2023-01-25T10:14:48;101945.35;;;1.04;67.80
57885;BME280;43703;51.060;-0.086;2023-01-25T10:17:18;101946.69;;;1.36;67.91
57885;BME280;43703;51.060;-0.086;2023-01-25T10:19:49;101948.45;;;-0.10;68.60
57885;BME280;43703;51.060;-0.086;2023-01-25T10:22:12;101942.53;;;-0.17;69.70
57885;BME280;43703;51.060;-0.086;2023-01-25T10:24:38;101940.91;;;-0.17;72.03
57885;BME280;43703;51.060;-0.086;2023-01-25T10:26:57;101942.32;;;-0.50;71.97
57885;BME280;43703;51.060;-0.086;2023-01-25T10:29:21;101941.90;;;-0.48;72.73
57885;BME280;43703;51.060;-0.086;2023-01-25T10:31:47;101942.83;;;0.35;70.36
57885;BME280;43703;51.060;-0.086;2023-01-25T10:34:17;101941.29;;;-0.01;70.97
57885;BME280;43703;51.060;-0.086;2023-01-25T10:36:36;101934.40;;;1.60;68.25
57885;BME280;43703;51.060;-0.086;2023-01-25T10:39:03;101930.16;;;1.17;67.16
57885;BME280;43703;51.060;-0.086;2023-01-25T10:41:34;101925.74;;;1.47;67.01
57885;BME280;43703;51.060;-0.086;2023-01-25T10:43:53;101927.22;;;-0.16;68.96
57885;BME280;43703;51.060;-0.086;2023-01-25T10:46:21;101925.53;;;1.84;66.93
57885;BME280;43703;51.060;-0.086;2023-01-25T10:48:44;101923.93;;;0.84;65.05
57885;BME280;43703;51.060;-0.086;2023-01-25T10:53:40;101920.40;;;-0.59;72.00
57885;BME280;43703;51.060;-0.086;2023-01-25T10:56:10;101917.61;;;0.87;68.84
57885;BME280;43703;51.060;-0.086;2023-01-25T10:58:31;101913.46;;;1.30;68.69
57885;BME280;43703;51.060;-0.086;2023-01-25T11:00:51;101906.71;;;-0.38;71.52
57885;BME280;43703;51.060;-0.086;2023-01-25T11:03:20;101901.76;;;0.04;71.46
57885;BME280;43703;51.060;-0.086;2023-01-25T11:05:42;101899.91;;;1.21;69.33
57885;BME280;43703;51.060;-0.086;2023-01-25T11:08:20;101899.37;;;-0.22;71.39
57885;BME280;43703;51.060;-0.086;2023-01-25T11:10:35;101895.78;;;-0.37;72.71
57885;BME280;43703;51.060;-0.086;2023-01-25T11:15:24;101885.65;;;-0.27;72.71
57885;BME280;43703;51.060;-0.086;2023-01-25T11:20:17;101879.90;;;0.15;72.61
57885;BME280;43703;51.060;-0.086;2023-01-25T11:22:49;101877.97;;;-0.43;71.77
57885;BME280;43703;51.060;-0.086;2023-01-25T11:27:31;101865.46;;;-0.83;71.54
57885;BME280;43703;51.060;-0.086;2023-01-25T11:30:05;101860.11;;;0.25;69.99
57885;BME280;43703;51.060;-0.086;2023-01-25T11:32:23;101855.77;;;-0.24;70.62
57885;BME280;43703;51.060;-0.086;2023-01-25T11:34:49;101848.55;;;0.55;69.67
57885;BME280;43703;51.060;-0.086;2023-01-25T11:37:28;101842.51;;;-0.05;70.72
57885;BME280;43703;51.060;-0.086;2023-01-25T11:39:49;101836.61;;;0.61;69.92
57885;BME280;43703;51.060;-0.086;2023-01-25T11:42:14;101829.98;;;0.33;70.58
57885;BME280;43703;51.060;-0.086;2023-01-25T11:44:47;101824.98;;;-0.33;72.52
57885;BME280;43703;51.060;-0.086;2023-01-25T11:47:00;101820.07;;;-0.28;72.31
57885;BME280;43703;51.060;-0.086;2023-01-25T11:49:34;101813.50;;;0.63;70.20
57885;BME280;43703;51.060;-0.086;2023-01-25T11:51:56;101806.96;;;0.75;69.47
57885;BME280;43703;51.060;-0.086;2023-01-25T11:56:44;101801.67;;;1.06;69.08
57885;BME280;43703;51.060;-0.086;2023-01-25T11:59:14;101792.19;;;0.48;70.10
57885;BME280;43703;51.060;-0.086;2023-01-25T12:01:34;101783.19;;;1.50;68.23
57885;BME280;43703;51.060;-0.086;2023-01-25T12:04:03;101774.14;;;1.01;68.19
57885;BME280;43703;51.060;-0.086;2023-01-25T12:06:23;101768.86;;;0.49;70.46
57885;BME280;43703;51.060;-0.086;2023-01-25T12:11:15;101766.77;;;0.45;69.94
57885;BME280;43703;51.060;-0.086;2023-01-25T12:13:42;101770.61;;;1.11;69.32
57885;BME280;43703;51.060;-0.086;2023-01-25T12:16:11;101772.86;;;0.92;67.82
57885;BME280;43703;51.060;-0.086;2023-01-25T12:21:02;101763.73;;;1.28;69.50
57885;BME280;43703;51.060;-0.086;2023-01-25T12:23:29;101762.19;;;1.00;68.51
57885;BME280;43703;51.060;-0.086;2023-01-25T12:25:50;101757.60;;;2.35;67.09
57885;BME280;43703;51.060;-0.086;2023-01-25T12:28:13;101752.70;;;1.09;67.22
57885;BME280;43703;51.060;-0.086;2023-01-25T12:30:42;101744.90;;;1.86;66.61
57885;BME280;43703;51.060;-0.086;2023-01-25T12:33:00;101748.28;;;0.30;68.74
57885;BME280;43703;51.060;-0.086;2023-01-25T12:35:29;101743.99;;;0.39;68.58
57885;BME280;43703;51.060;-0.086;2023-01-25T12:37:49;101744.42;;;0.46;68.80
57885;BME280;43703;51.060;-0.086;2023-01-25T12:40:17;101743.76;;;0.63;68.80
57885;BME280;43703;51.060;-0.086;2023-01-25T12:42:42;101732.58;;;2.53;65.89
57885;BME280;43703;51.060;-0.086;2023-01-25T12:45:10;101724.91;;;2.85;64.75
57885;BME280;43703;51.060;-0.086;2023-01-25T12:47:34;101720.08;;;2.08;64.04
57885;BME280;43703;51.060;-0.086;2023-01-25T12:49:59;101713.70;;;1.06;67.51
57885;BME280;43703;51.060;-0.086;2023-01-25T12:52:26;101706.70;;;1.94;66.09
57885;BME280;43703;51.060;-0.086;2023-01-25T12:54:47;101697.29;;;2.12;65.53
57885;BME280;43703;51.060;-0.086;2023-01-25T12:57:20;101698.60;;;1.93;66.44